createdAt,value
2023-01-05T00:02:27.542Z,79.09
2023-01-05T00:05:54.529Z,79.29
2023-01-05T00:09:21.987Z,79.11
2023-01-05T00:13:08.740Z,79.13
2023-01-05T00:16:53.197Z,79.10
2023-01-05T00:20:39.884Z,78.94
2023-01-05T00:24:06.918Z,79.18
2023-01-05T00:27:33.663Z,79.13
2023-01-05T00:31:02.101Z,78.94
2023-01-05T00:34:29.066Z,79.25
2023-01-05T00:37:56.038Z,78.99
2023-01-05T00:41:23.872Z,79.10
2023-01-05T00:44:51.416Z,79.11
2023-01-05T00:48:18.380Z,79.12
2023-01-05T00:51:45.257Z,79.04
2023-01-05T00:55:13.474Z,79.02
2023-01-05T00:58:40.249Z,79.32
2023-01-05T01:02:26.858Z,79.16
2023-01-05T01:06:01.046Z,79.26
2023-01-05T01:09:28.035Z,79.61
2023-01-05T01:12:56.883Z,79.56
2023-01-05T01:16:33.928Z,79.12
2023-01-05T01:20:05.381Z,79.34
2023-01-05T01:23:34.305Z,79.35
2023-01-05T01:27:04.644Z,79.46
2023-01-05T01:30:33.587Z,79.41
2023-01-05T01:34:00.354Z,79.28
2023-01-05T01:37:27.050Z,79.15
2023-01-05T01:40:56.543Z,79.37
2023-01-05T01:44:57.300Z,79.37
2023-01-05T01:48:26.254Z,79.34
2023-01-05T01:51:54.433Z,79.66
2023-01-05T01:55:24.287Z,79.61
2023-01-05T01:58:52.450Z,79.23
2023-01-05T02:02:20.711Z,79.33
2023-01-05T02:05:48.041Z,79.59
2023-01-05T02:09:14.508Z,79.64
2023-01-05T02:13:01.474Z,79.44
2023-01-05T02:16:37.056Z,79.64
2023-01-05T02:20:33.933Z,79.60
2023-01-05T02:24:21.449Z,79.70
2023-01-05T02:28:00.418Z,79.36
2023-01-05T02:31:32.005Z,79.55
2023-01-05T02:35:09.362Z,79.72
2023-01-05T02:38:44.743Z,79.34
2023-01-05T02:42:19.842Z,79.58
2023-01-05T02:45:47.212Z,79.46
2023-01-05T02:49:16.952Z,79.76
2023-01-05T02:52:51.587Z,79.69
2023-01-05T02:56:23.380Z,79.48
2023-01-05T02:59:54.629Z,79.69
2023-01-05T03:03:28.478Z,79.51
2023-01-05T03:06:59.987Z,79.59
2023-01-05T03:10:46.602Z,79.66
2023-01-05T03:14:18.644Z,79.75
2023-01-05T03:18:13.648Z,79.65
2023-01-05T03:22:14.145Z,79.57
2023-01-05T03:26:00.827Z,79.25
2023-01-05T03:29:47.749Z,79.62
2023-01-05T03:33:41.231Z,79.56
2023-01-05T03:37:11.897Z,79.69
2023-01-05T03:40:43.379Z,79.82
2023-01-05T03:44:10.411Z,79.26
2023-01-05T03:47:38.754Z,79.48
2023-01-05T03:51:05.999Z,79.28
2023-01-05T03:54:34.460Z,79.10
2023-01-05T03:58:01.598Z,79.17
2023-01-05T04:01:29.362Z,79.23
2023-01-05T04:04:56.418Z,79.08
2023-01-05T04:08:22.759Z,79.48
2023-01-05T04:11:49.704Z,79.00
2023-01-05T04:15:16.931Z,79.17
2023-01-05T04:18:44.673Z,78.97
2023-01-05T04:22:13.087Z,79.24
2023-01-05T04:25:40.672Z,79.40
2023-01-05T04:29:14.856Z,79.37
2023-01-05T04:32:42.980Z,79.19
2023-01-05T04:36:13.156Z,79.49
2023-01-05T04:39:40.247Z,79.21
2023-01-05T04:43:09.349Z,79.18
2023-01-05T04:46:36.020Z,79.47
2023-01-05T04:50:02.951Z,79.48
2023-01-05T04:53:29.996Z,79.38
2023-01-05T04:56:57.851Z,79.19
2023-01-05T05:00:24.700Z,79.16
2023-01-05T05:03:51.402Z,79.22
2023-01-05T05:07:19.805Z,78.98
2023-01-05T05:10:47.094Z,79.18
2023-01-05T05:14:14.343Z,79.14
2023-01-05T05:17:41.710Z,79.41
2023-01-05T05:21:12.057Z,79.12
2023-01-05T05:24:39.255Z,79.10
2023-01-05T05:28:07.104Z,79.41
2023-01-05T05:31:33.827Z,79.46
2023-01-05T05:35:00.131Z,79.32
2023-01-05T05:38:27.300Z,79.47
2023-01-05T05:41:54.689Z,79.15
2023-01-05T05:45:22.181Z,79.20
2023-01-05T05:48:49.044Z,79.21
2023-01-05T05:52:15.502Z,79.31
2023-01-05T05:55:42.242Z,79.14
2023-01-05T05:59:08.823Z,79.07
2023-01-05T06:02:35.356Z,78.23
2023-01-05T06:06:03.436Z,78.61
2023-01-05T06:09:30.412Z,78.32
2023-01-05T06:12:57.986Z,78.25
2023-01-05T06:16:25.819Z,78.15
2023-01-05T06:19:52.742Z,78.48
2023-01-05T06:23:20.453Z,78.13
2023-01-05T06:26:47.436Z,78.20
2023-01-05T06:30:15.382Z,78.27
2023-01-05T06:33:42.644Z,77.93
2023-01-05T06:37:09.731Z,77.92
2023-01-05T06:40:36.679Z,78.16
2023-01-05T06:44:03.527Z,78.15
2023-01-05T06:47:30.435Z,77.84
2023-01-05T06:50:57.111Z,77.96
2023-01-05T06:54:26.742Z,77.89
2023-01-05T06:57:58.675Z,77.90
2023-01-05T07:01:27.709Z,78.05
2023-01-05T07:04:54.739Z,77.64
2023-01-05T07:08:21.123Z,77.78
2023-01-05T07:11:48.259Z,77.93
2023-01-05T07:15:15.536Z,77.79
2023-01-05T07:18:42.546Z,77.68
2023-01-05T07:22:12.113Z,77.45
2023-01-05T07:25:39.056Z,77.79
2023-01-05T07:29:06.103Z,77.56
2023-01-05T07:32:32.824Z,77.62
2023-01-05T07:36:01.951Z,77.55
2023-01-05T07:39:28.697Z,77.75
2023-01-05T07:42:55.982Z,77.60
2023-01-05T07:46:22.761Z,77.90
2023-01-05T07:49:50.484Z,77.72
2023-01-05T07:53:43.994Z,77.48
2023-01-05T07:57:12.232Z,77.78
2023-01-05T08:00:38.934Z,78.10
2023-01-05T08:04:06.338Z,77.84
2023-01-05T08:07:33.409Z,77.48
2023-01-05T08:10:59.990Z,77.95
2023-01-05T08:14:26.660Z,77.55
2023-01-05T08:17:53.188Z,77.51
2023-01-05T08:21:20.347Z,77.29
2023-01-05T08:24:46.720Z,77.72
2023-01-05T08:28:14.196Z,77.49
2023-01-05T08:31:43.665Z,77.72
2023-01-05T08:35:11.130Z,77.34
2023-01-05T08:38:38.004Z,77.47
2023-01-05T08:42:05.706Z,77.70
2023-01-05T08:45:33.388Z,77.50
2023-01-05T08:49:02.017Z,77.43
2023-01-05T08:52:28.752Z,77.33
2023-01-05T08:55:56.164Z,77.24
2023-01-05T08:59:23.907Z,77.02
2023-01-05T09:02:50.651Z,77.17
2023-01-05T09:06:17.906Z,77.11
2023-01-05T09:09:47.102Z,76.63
2023-01-05T09:13:14.494Z,76.63
2023-01-05T09:20:28.250Z,76.53
2023-01-05T09:23:55.470Z,76.38
2023-01-05T09:27:23.020Z,76.32
2023-01-05T09:30:50.960Z,76.44
2023-01-05T09:34:19.811Z,76.39
2023-01-05T09:37:47.724Z,76.02
2023-01-05T09:41:22.780Z,76.09
2023-01-05T09:44:58.613Z,75.95
2023-01-05T09:48:27.441Z,75.69
2023-01-05T09:51:59.562Z,75.97
2023-01-05T09:55:29.767Z,75.85
2023-01-05T09:59:04.994Z,75.36
2023-01-05T10:02:37.075Z,75.74
2023-01-05T10:06:04.543Z,75.70
2023-01-05T10:09:35.555Z,75.47
2023-01-05T10:13:11.419Z,75.71
2023-01-05T10:16:46.158Z,75.52
2023-01-05T10:20:27.140Z,75.47
2023-01-05T10:24:18.311Z,75.42
2023-01-05T10:27:56.990Z,75.61
2023-01-05T10:31:29.335Z,75.39
2023-01-05T10:35:07.058Z,75.16
2023-01-05T10:38:51.288Z,75.52
2023-01-05T10:42:27.556Z,75.16
2023-01-05T10:46:29.878Z,75.19
2023-01-05T10:49:46.772Z,75.27
2023-01-05T10:53:18.382Z,75.39
2023-01-05T10:56:47.148Z,75.07
2023-01-05T11:00:17.925Z,74.95
2023-01-05T11:04:24.387Z,75.26
2023-01-05T11:07:34.628Z,75.02
2023-01-05T11:11:04.459Z,74.65
2023-01-05T11:14:36.839Z,74.89
2023-01-05T11:18:05.804Z,74.54
2023-01-05T11:21:45.580Z,74.79
2023-01-05T11:25:24.773Z,74.73
2023-01-05T11:29:01.406Z,74.70
2023-01-05T11:32:31.034Z,74.60
2023-01-05T11:35:58.814Z,74.70
2023-01-05T11:39:31.551Z,74.80
2023-01-05T11:42:59.607Z,74.69
2023-01-05T11:46:27.266Z,74.89
2023-01-05T11:50:08.822Z,74.69
2023-01-05T11:53:43.307Z,74.77
2023-01-05T11:57:22.583Z,74.72
2023-01-05T12:01:31.037Z,74.65
2023-01-05T12:05:16.891Z,74.79
2023-01-05T12:08:50.225Z,75.17
2023-01-05T12:12:30.472Z,75.01
2023-01-05T12:16:13.379Z,75.13
2023-01-05T12:20:02.061Z,75.13
2023-01-05T12:23:55.196Z,75.23
2023-01-05T12:27:34.080Z,75.36
2023-01-05T12:35:23.807Z,75.05
2023-01-05T12:38:58.543Z,74.96
2023-01-05T12:42:48.103Z,75.12
2023-01-05T12:46:30.803Z,75.10
2023-01-05T12:50:05.513Z,75.37
2023-01-05T12:53:43.638Z,75.41
2023-01-05T12:57:14.559Z,75.32
2023-01-05T13:00:46.660Z,75.41
2023-01-05T13:04:28.541Z,75.31
2023-01-05T13:08:03.274Z,75.54
2023-01-05T13:11:35.265Z,75.60
2023-01-05T13:15:15.321Z,75.34
2023-01-05T13:18:49.205Z,75.46
2023-01-05T13:22:23.265Z,75.41
2023-01-05T13:25:57.001Z,75.27
2023-01-05T13:29:32.251Z,75.31
2023-01-05T13:33:26.543Z,74.94
2023-01-05T13:37:09.397Z,75.25
2023-01-05T13:41:07.024Z,74.83
2023-01-05T13:44:58.088Z,75.04
2023-01-05T13:48:45.572Z,74.95
2023-01-05T13:52:33.168Z,74.49
2023-01-05T13:56:03.037Z,74.90
2023-01-05T13:59:40.880Z,74.81
2023-01-05T14:03:22.520Z,75.10
2023-01-05T14:06:53.117Z,74.90
2023-01-05T14:10:28.292Z,74.94
2023-01-05T14:13:59.831Z,74.89
2023-01-05T14:17:55.814Z,74.92
2023-01-05T14:21:54.683Z,74.89
2023-01-05T14:25:53.124Z,74.80
2023-01-05T14:30:11.197Z,74.74
2023-01-05T14:33:51.199Z,74.89
2023-01-05T14:37:25.067Z,74.60
2023-01-05T14:40:56.713Z,74.88
2023-01-05T14:44:29.335Z,74.75
2023-01-05T14:47:59.249Z,74.64
2023-01-05T14:51:30.255Z,74.66
2023-01-05T14:55:27.047Z,74.71
2023-01-05T14:59:16.699Z,74.92
2023-01-05T15:02:58.881Z,74.98
2023-01-05T15:06:32.963Z,74.93
2023-01-05T15:10:18.753Z,74.94
2023-01-05T15:14:27.025Z,74.85
2023-01-05T15:18:26.279Z,75.15
2023-01-05T15:22:30.433Z,75.07
2023-01-05T15:26:30.787Z,74.93
2023-01-05T15:30:21.890Z,75.01
2023-01-05T15:34:01.552Z,74.98
2023-01-05T15:37:36.478Z,75.08
2023-01-05T15:41:24.871Z,75.10
2023-01-05T15:45:02.505Z,75.03
2023-01-05T15:48:41.608Z,75.06
2023-01-05T15:52:30.730Z,75.19
2023-01-05T15:56:01.552Z,75.18
2023-01-05T15:59:42.196Z,75.25
2023-01-05T16:03:31.601Z,75.16
2023-01-05T16:07:12.674Z,75.16
2023-01-05T16:10:55.618Z,75.25
2023-01-05T16:14:30.493Z,75.18
2023-01-05T16:18:00.820Z,75.27
2023-01-05T16:21:35.586Z,75.26
2023-01-05T16:25:13.555Z,75.33
2023-01-05T16:28:45.607Z,75.34
2023-01-05T16:32:43.612Z,75.42
2023-01-05T16:36:21.782Z,75.60
2023-01-05T16:39:49.978Z,75.59
2023-01-05T16:43:26.855Z,75.46
2023-01-05T16:47:14.640Z,75.29
2023-01-05T16:51:10.184Z,75.49
2023-01-05T16:54:41.908Z,75.47
2023-01-05T16:58:37.530Z,75.44
2023-01-05T17:02:31.854Z,75.38
2023-01-05T17:06:04.194Z,75.26
2023-01-05T17:09:44.338Z,75.15
2023-01-05T17:13:23.234Z,75.25
2023-01-05T17:16:54.566Z,75.19
2023-01-05T17:20:21.404Z,74.99
2023-01-05T17:23:51.959Z,75.07
2023-01-05T17:27:21.126Z,75.11
2023-01-05T17:30:49.500Z,75.36
2023-01-05T17:34:16.676Z,75.28
2023-01-05T17:37:47.941Z,75.31
2023-01-05T17:41:17.387Z,75.12
2023-01-05T17:44:44.008Z,75.32
2023-01-05T17:51:41.835Z,75.26
2023-01-05T17:55:10.222Z,75.31
2023-01-05T17:58:36.719Z,75.35
2023-01-05T18:02:05.230Z,75.36
2023-01-05T18:05:39.457Z,75.28
2023-01-05T18:09:12.216Z,75.28
2023-01-05T18:12:42.563Z,75.14
2023-01-05T18:16:14.598Z,75.15
2023-01-05T18:23:18.280Z,75.26
2023-01-05T18:26:48.347Z,75.03
2023-01-05T18:30:19.506Z,75.19
2023-01-05T18:33:46.777Z,74.98
2023-01-05T18:37:21.448Z,75.09
2023-01-05T18:40:51.959Z,75.03
2023-01-05T18:44:20.127Z,74.87
2023-01-05T18:47:47.433Z,74.92
2023-01-05T18:51:15.599Z,74.96
2023-01-05T18:54:45.428Z,74.96
2023-01-05T18:58:13.720Z,74.74
2023-01-05T19:01:43.327Z,74.55
2023-01-05T19:05:11.066Z,74.82
2023-01-05T19:08:39.388Z,74.50
2023-01-05T19:12:08.051Z,74.68
2023-01-05T19:15:38.932Z,74.69
2023-01-05T19:19:09.588Z,74.61
2023-01-05T19:22:42.637Z,74.41
2023-01-05T19:26:12.470Z,74.26
2023-01-05T19:29:39.158Z,74.48
2023-01-05T19:33:06.082Z,74.26
2023-01-05T19:36:36.227Z,74.42
2023-01-05T19:40:03.619Z,74.26
2023-01-05T19:43:30.804Z,74.13
2023-01-05T19:47:04.397Z,74.17
2023-01-05T19:50:37.760Z,73.89
2023-01-05T19:54:07.545Z,74.00
2023-01-05T19:57:44.352Z,74.34
2023-01-05T20:01:13.772Z,74.24
2023-01-05T20:04:43.375Z,74.01
2023-01-05T20:08:12.139Z,74.35
2023-01-05T20:11:45.228Z,74.35
2023-01-05T20:15:12.052Z,74.18
2023-01-05T20:18:40.446Z,74.24
2023-01-05T20:22:14.260Z,74.12
2023-01-05T20:25:44.388Z,73.99
2023-01-05T20:29:11.647Z,74.09
2023-01-05T20:32:43.103Z,74.05
2023-01-05T20:36:14.231Z,74.11
2023-01-05T20:39:55.236Z,73.87
2023-01-05T20:43:24.955Z,74.02
2023-01-05T20:46:56.840Z,73.84
2023-01-05T20:50:26.643Z,74.11
2023-01-05T20:53:56.056Z,74.17
2023-01-05T20:57:24.304Z,74.34
2023-01-05T21:01:10.681Z,74.32
2023-01-05T21:04:38.343Z,74.09
2023-01-05T21:08:07.730Z,73.80
2023-01-05T21:11:41.379Z,73.91
2023-01-05T21:15:14.194Z,74.04
2023-01-05T21:18:44.095Z,73.86
2023-01-05T21:22:15.049Z,74.04
2023-01-05T21:26:06.391Z,74.08
2023-01-05T21:29:37.058Z,73.93
2023-01-05T21:33:10.821Z,73.99
2023-01-05T21:36:42.527Z,73.70
2023-01-05T21:40:13.918Z,73.90
2023-01-05T21:43:45.813Z,74.16
2023-01-05T21:47:14.290Z,74.19
2023-01-05T21:51:00.411Z,74.24
2023-01-05T21:54:47.683Z,74.46
2023-01-05T21:58:14.900Z,74.42
2023-01-05T22:01:43.983Z,74.39
2023-01-05T22:05:14.271Z,74.49
2023-01-05T22:08:43.947Z,74.29
2023-01-05T22:12:11.656Z,74.24
2023-01-05T22:15:39.735Z,74.38
2023-01-05T22:19:08.091Z,74.52
2023-01-05T22:22:38.793Z,74.03
2023-01-05T22:26:11.191Z,74.02
2023-01-05T22:29:39.179Z,73.98
2023-01-05T22:33:08.554Z,74.08
2023-01-05T22:36:38.347Z,74.15
2023-01-05T22:40:08.408Z,74.23
2023-01-05T22:43:39.578Z,74.24
2023-01-05T22:47:11.808Z,73.97
2023-01-05T22:50:42.683Z,73.76
2023-01-05T22:54:11.046Z,73.92
2023-01-05T22:57:38.714Z,73.84
2023-01-05T23:01:14.343Z,74.07
2023-01-05T23:04:42.390Z,73.89
2023-01-05T23:08:11.742Z,73.96
2023-01-05T23:11:42.445Z,73.70
2023-01-05T23:15:13.558Z,73.32
2023-01-05T23:18:45.219Z,73.30
2023-01-05T23:22:12.201Z,73.34
2023-01-05T23:25:39.956Z,73.52
2023-01-05T23:29:09.098Z,73.31
2023-01-05T23:32:36.730Z,73.53
2023-01-05T23:36:04.946Z,73.54
2023-01-05T23:39:32.205Z,73.51
2023-01-05T23:43:00.025Z,73.53
2023-01-05T23:46:27.756Z,73.57
2023-01-05T23:49:55.343Z,73.36
2023-01-05T23:53:23.381Z,73.51
2023-01-05T23:56:53.390Z,73.07
